createdAt,value
2019-06-01T00:02:55.801Z,14.00
2019-06-01T00:05:20.532Z,12.97
2019-06-01T00:10:50.387Z,13.00
2019-06-01T00:13:18.681Z,13.58
2019-06-01T00:15:48.193Z,14.70
2019-06-01T00:20:56.014Z,13.47
2019-06-01T00:23:24.330Z,14.73
2019-06-01T00:25:52.925Z,12.87
2019-06-01T00:28:22.630Z,13.10
2019-06-01T00:30:51.987Z,13.97
2019-06-01T00:33:20.968Z,12.40
2019-06-01T00:35:49.544Z,13.20
2019-06-01T00:38:19.270Z,13.90
2019-06-01T00:40:48.016Z,14.70
2019-06-01T00:43:17.598Z,14.83
2019-06-01T00:45:46.526Z,15.03
2019-06-01T00:48:15.899Z,14.93
2019-06-01T00:50:44.927Z,15.50
2019-06-01T00:53:14.206Z,14.67
2019-06-01T00:55:43.243Z,12.60
2019-06-01T00:58:12.507Z,12.83
2019-06-01T01:00:44.223Z,14.28
2019-06-01T01:03:10.825Z,11.73
2019-06-01T01:05:39.114Z,13.27
2019-06-01T01:08:07.427Z,14.67
2019-06-01T01:10:35.723Z,13.10
2019-06-01T01:13:23.191Z,13.00
2019-06-01T01:15:51.491Z,13.80
2019-06-01T01:18:19.784Z,13.20
2019-06-01T01:20:48.084Z,14.28
2019-06-01T01:23:16.373Z,13.00
2019-06-01T01:25:44.667Z,13.50
2019-06-01T01:28:12.959Z,13.03
2019-06-01T01:31:21.277Z,14.00
2019-06-01T01:33:49.553Z,14.53
2019-06-01T01:36:17.875Z,13.57
2019-06-01T01:38:46.166Z,13.23
2019-06-01T01:41:14.456Z,15.10
2019-06-01T01:43:43.607Z,14.00
2019-06-01T01:46:11.894Z,16.00
2019-06-01T01:48:40.184Z,16.82
2019-06-01T01:51:08.516Z,16.47
2019-06-01T01:53:36.789Z,17.07
2019-06-01T01:56:05.158Z,15.57
2019-06-01T01:58:33.452Z,14.57
2019-06-01T02:01:17.982Z,14.68
2019-06-01T02:03:31.734Z,15.13
2019-06-01T02:06:00.043Z,14.90
2019-06-01T02:08:28.358Z,16.33
2019-06-01T02:10:57.443Z,15.40
2019-06-01T02:13:26.657Z,16.37
2019-06-01T02:15:56.207Z,15.57
2019-06-01T02:20:54.414Z,15.53
2019-06-01T02:23:24.163Z,15.17
2019-06-01T02:25:52.896Z,14.50
2019-06-01T02:28:22.470Z,14.70
2019-06-01T02:30:50.761Z,15.97
2019-06-01T02:33:19.074Z,16.03
2019-06-01T02:35:47.367Z,18.07
2019-06-01T02:38:15.640Z,15.20
2019-06-01T02:40:43.938Z,17.20
2019-06-01T02:43:13.283Z,16.37
2019-06-01T02:45:41.583Z,15.63
2019-06-01T02:48:09.866Z,18.27
2019-06-01T02:50:38.162Z,17.35
2019-06-01T02:53:46.469Z,16.05
2019-06-01T02:56:14.762Z,15.67
2019-06-01T02:58:43.056Z,15.93
2019-06-01T03:01:57.356Z,15.40
2019-06-01T03:04:53.425Z,17.80
2019-06-01T03:07:21.788Z,16.93
2019-06-01T03:10:30.137Z,15.90
2019-06-01T03:13:38.458Z,16.93
2019-06-01T03:16:40.472Z,17.17
2019-06-01T03:19:09.009Z,14.50
2019-06-01T03:21:37.369Z,18.00
2019-06-01T03:24:45.693Z,17.03
2019-06-01T03:27:47.650Z,15.53
2019-06-01T03:30:49.986Z,17.63
2019-06-01T03:33:18.346Z,17.20
2019-06-01T03:35:46.697Z,17.43
2019-06-01T03:38:15.049Z,15.83
2019-06-01T03:40:43.334Z,15.40
2019-06-01T03:43:51.677Z,15.97
2019-06-01T03:46:19.965Z,14.75
2019-06-01T03:48:48.258Z,15.58
2019-06-01T03:51:16.546Z,13.67
2019-06-01T03:53:44.839Z,14.50
2019-06-01T03:56:13.132Z,14.37
2019-06-01T03:58:41.403Z,14.73
2019-06-01T04:01:09.705Z,14.20
2019-06-01T04:03:38.263Z,14.03
2019-06-01T04:06:07.347Z,13.73
2019-06-01T04:08:36.586Z,13.43
2019-06-01T04:11:05.680Z,14.03
2019-06-01T04:13:34.909Z,13.67
2019-06-01T04:16:03.735Z,13.37
2019-06-01T04:18:33.209Z,14.40
2019-06-01T04:21:02.421Z,12.93
2019-06-01T04:23:31.504Z,14.57
2019-06-01T04:25:59.795Z,13.53
2019-06-01T04:28:28.119Z,12.50
2019-06-01T04:30:56.415Z,10.80
2019-06-01T04:33:24.708Z,11.93
2019-06-01T04:35:52.996Z,11.27
2019-06-01T04:38:21.294Z,10.67
2019-06-01T04:40:49.586Z,10.37
2019-06-01T04:43:17.890Z,11.10
2019-06-01T04:45:46.165Z,11.13
2019-06-01T04:48:14.716Z,10.93
2019-06-01T04:53:15.038Z,10.40
2019-06-01T04:55:43.697Z,10.45
2019-06-01T04:58:13.090Z,9.87
2019-06-01T05:00:41.997Z,11.00
2019-06-01T05:03:11.648Z,10.63
2019-06-01T05:05:40.308Z,10.57
2019-06-01T05:08:09.362Z,10.43
2019-06-01T05:10:38.589Z,10.73
2019-06-01T05:13:07.341Z,9.77
2019-06-01T05:15:36.886Z,11.20
2019-06-01T05:18:05.928Z,9.03
2019-06-01T05:20:35.211Z,10.20
2019-06-01T05:23:03.501Z,9.53
2019-06-01T05:25:31.780Z,12.00
2019-06-01T05:28:00.068Z,11.35
2019-06-01T05:30:28.377Z,12.03
2019-06-01T05:32:56.692Z,12.70
2019-06-01T05:35:24.985Z,11.17
2019-06-01T05:37:53.270Z,11.83
2019-06-01T05:40:21.572Z,9.77
2019-06-01T05:42:49.856Z,10.30
2019-06-01T05:45:58.198Z,10.93
2019-06-01T05:48:30.391Z,9.90
2019-06-01T05:50:56.509Z,10.93
2019-06-01T05:53:24.810Z,10.27
2019-06-01T05:55:53.092Z,11.50
2019-06-01T05:58:21.857Z,10.10
2019-06-01T06:00:51.381Z,13.80
2019-06-01T06:03:22.340Z,11.80
2019-06-01T06:05:49.697Z,12.00
2019-06-01T06:08:18.117Z,11.37
2019-06-01T06:10:46.349Z,13.80
2019-06-01T06:13:15.318Z,11.37
2019-06-01T06:15:44.662Z,10.63
2019-06-01T06:18:13.678Z,12.30
2019-06-01T06:20:42.966Z,12.10
2019-06-01T06:23:12.226Z,11.57
2019-06-01T06:25:41.568Z,12.13
2019-06-01T06:28:12.464Z,13.95
2019-06-01T06:30:41.291Z,12.43
2019-06-01T06:33:09.593Z,12.55
2019-06-01T06:35:37.869Z,13.20
2019-06-01T06:38:06.157Z,12.70
2019-06-01T06:40:34.430Z,11.97
2019-06-01T06:43:02.717Z,12.30
2019-06-01T06:45:31.016Z,13.10
2019-06-01T06:47:59.321Z,12.03
2019-06-01T06:50:27.589Z,13.00
2019-06-01T06:52:55.872Z,12.70
2019-06-01T06:55:24.149Z,12.47
2019-06-01T06:57:52.436Z,12.00
2019-06-01T07:00:20.793Z,13.05
2019-06-01T07:02:49.105Z,13.70
2019-06-01T07:05:17.405Z,14.03
2019-06-01T07:07:45.699Z,16.60
2019-06-01T07:10:14.059Z,16.60
2019-06-01T07:12:42.343Z,16.60
2019-06-01T07:15:10.695Z,15.67
2019-06-01T07:17:38.993Z,14.60
2019-06-01T07:20:47.314Z,14.10
2019-06-01T07:23:15.611Z,13.70
2019-06-01T07:25:43.980Z,14.63
2019-06-01T07:28:12.282Z,12.70
2019-06-01T07:30:49.663Z,14.05
2019-06-01T07:33:10.575Z,13.50
2019-06-01T07:35:38.853Z,12.80
2019-06-01T07:38:07.142Z,14.13
2019-06-01T07:40:35.447Z,12.50
2019-06-01T07:43:03.725Z,13.50
2019-06-01T07:45:33.915Z,11.90
2019-06-01T07:48:02.034Z,11.12
2019-06-01T07:50:30.306Z,11.90
2019-06-01T07:52:58.596Z,13.48
2019-06-01T07:55:27.595Z,13.50
2019-06-01T07:57:56.895Z,13.30
2019-06-01T08:00:26.087Z,12.33
2019-06-01T08:02:55.188Z,10.88
2019-06-01T08:05:24.955Z,10.97
2019-06-01T08:07:53.458Z,10.40
2019-06-01T08:10:23.055Z,10.53
2019-06-01T08:12:51.763Z,11.10
2019-06-01T08:15:21.487Z,12.07
2019-06-01T08:17:50.050Z,11.22
2019-06-01T08:20:18.330Z,10.50
2019-06-01T08:22:46.602Z,9.57
2019-06-01T08:25:14.888Z,11.83
2019-06-01T08:27:43.178Z,11.77
2019-06-01T08:30:11.692Z,11.57
2019-06-01T08:32:40.036Z,11.43
2019-06-01T08:35:09.699Z,10.63
2019-06-01T08:37:38.456Z,10.13
2019-06-01T08:40:27.319Z,10.97
2019-06-01T08:42:56.121Z,11.60
2019-06-01T08:45:25.454Z,12.10
2019-06-01T08:47:54.444Z,10.67
2019-06-01T08:50:23.818Z,9.50
2019-06-01T08:52:52.754Z,11.07
2019-06-01T08:55:21.049Z,10.57
2019-06-01T08:57:49.326Z,9.93
2019-06-01T09:00:17.785Z,10.03
2019-06-01T09:02:46.075Z,11.33
2019-06-01T09:05:23.929Z,9.63
2019-06-01T09:07:44.437Z,11.55
2019-06-01T09:10:12.973Z,11.90
2019-06-01T09:12:41.263Z,11.22
2019-06-01T09:15:49.578Z,10.27
2019-06-01T09:18:17.872Z,11.37
2019-06-01T09:20:46.151Z,11.53
2019-06-01T09:23:14.426Z,9.63
2019-06-01T09:25:42.705Z,12.95
2019-06-01T09:28:10.989Z,11.57
2019-06-01T09:30:39.258Z,9.97
2019-06-01T09:33:07.533Z,9.20
2019-06-01T09:35:52.634Z,9.27
2019-06-01T09:38:05.887Z,10.57
2019-06-01T09:40:35.068Z,10.60
2019-06-01T09:43:04.182Z,9.87
2019-06-01T09:45:33.059Z,10.70
2019-06-01T09:48:02.504Z,10.07
2019-06-01T09:50:31.342Z,10.23
2019-06-01T09:53:00.801Z,9.50
2019-06-01T09:55:30.894Z,8.63
2019-06-01T09:57:59.090Z,9.30
2019-06-01T10:01:07.395Z,9.30
2019-06-01T10:03:48.758Z,9.43
2019-06-01T10:06:17.043Z,10.97
2019-06-01T10:08:45.329Z,9.30
2019-06-01T10:11:13.643Z,10.13
2019-06-01T10:13:42.716Z,10.47
2019-06-01T10:16:11.028Z,8.80
2019-06-01T10:18:39.327Z,9.40
2019-06-01T10:21:07.607Z,9.00
2019-06-01T10:23:36.525Z,8.40
2019-06-01T10:26:05.880Z,7.50
2019-06-01T10:28:35.616Z,9.40
2019-06-01T10:31:04.174Z,8.50
2019-06-01T10:33:32.711Z,8.70
2019-06-01T10:36:18.621Z,7.93
2019-06-01T10:38:31.176Z,6.20
2019-06-01T10:40:59.431Z,7.00
2019-06-01T10:43:27.763Z,5.87
2019-06-01T10:45:56.039Z,6.90
2019-06-01T10:48:24.323Z,7.47
2019-06-01T10:50:52.597Z,8.70
2019-06-01T10:53:20.869Z,6.63
2019-06-01T10:55:49.165Z,6.10
2019-06-01T10:58:17.453Z,5.50
2019-06-01T11:00:50.854Z,5.87
2019-06-01T11:03:15.732Z,6.30
2019-06-01T11:05:43.996Z,6.10
2019-06-01T11:08:12.275Z,5.10
2019-06-01T11:10:40.959Z,5.23
2019-06-01T11:13:10.558Z,4.47
2019-06-01T11:15:39.081Z,6.37
2019-06-01T11:18:08.836Z,5.87
2019-06-01T11:20:37.350Z,5.20
2019-06-01T11:23:05.570Z,6.27
2019-06-01T11:25:33.842Z,5.90
2019-06-01T11:28:02.111Z,5.00
2019-06-01T11:30:30.408Z,4.73
2019-06-01T11:32:58.722Z,5.13
2019-06-01T11:35:26.998Z,4.87
2019-06-01T11:37:55.270Z,4.73
2019-06-01T11:40:23.532Z,5.93
2019-06-01T11:42:51.819Z,4.60
2019-06-01T11:45:20.266Z,4.50
2019-06-01T11:47:48.603Z,6.07
2019-06-01T11:50:16.903Z,4.53
2019-06-01T11:52:45.567Z,5.37
2019-06-01T11:55:15.252Z,4.40
2019-06-01T11:57:43.560Z,4.33
2019-06-01T12:00:51.857Z,3.97
2019-06-01T12:03:20.128Z,3.67
2019-06-01T12:05:48.490Z,4.83
2019-06-01T12:08:16.765Z,4.57
2019-06-01T12:10:45.344Z,4.17
2019-06-01T12:13:15.041Z,4.20
2019-06-01T12:15:44.403Z,4.23
2019-06-01T12:18:13.346Z,4.33
2019-06-01T12:20:42.587Z,4.50
2019-06-01T12:23:11.593Z,4.83
2019-06-01T12:25:40.176Z,4.80
2019-06-01T12:28:09.868Z,4.43
2019-06-01T12:30:38.142Z,4.30
2019-06-01T12:33:06.423Z,5.87
2019-06-01T12:35:34.704Z,4.83
2019-06-01T12:38:06.872Z,4.00
2019-06-01T12:40:33.073Z,4.67
2019-06-01T12:43:02.270Z,3.40
2019-06-01T12:45:30.555Z,3.97
2019-06-01T12:47:58.862Z,4.00
2019-06-01T12:50:27.171Z,5.13
2019-06-01T12:52:55.449Z,4.27
2019-06-01T12:55:23.915Z,4.50
2019-06-01T12:57:52.186Z,3.93
2019-06-01T13:00:20.526Z,3.50
2019-06-01T13:02:56.560Z,4.10
2019-06-01T13:05:30.583Z,4.53
2019-06-01T13:08:02.648Z,3.93
2019-06-01T13:10:28.863Z,3.80
2019-06-01T13:12:57.141Z,4.40
2019-06-01T13:15:25.430Z,3.62
2019-06-01T13:17:53.704Z,4.13
2019-06-01T13:20:21.975Z,3.47
2019-06-01T13:22:50.287Z,4.40
2019-06-01T13:25:18.520Z,3.83
2019-06-01T13:27:48.692Z,3.10
2019-06-01T13:30:16.776Z,3.40
2019-06-01T13:32:46.383Z,3.70
2019-06-01T13:35:15.116Z,3.70
2019-06-01T13:37:44.481Z,3.63
2019-06-01T13:40:13.463Z,3.77
2019-06-01T13:42:54.357Z,3.60
2019-06-01T13:45:22.635Z,3.10
2019-06-01T13:47:51.862Z,3.30
2019-06-01T13:50:21.118Z,3.90
2019-06-01T13:52:50.063Z,3.30
2019-06-01T13:55:19.381Z,3.63
2019-06-01T13:57:48.338Z,3.37
2019-06-01T14:00:52.831Z,3.57
2019-06-01T14:03:21.458Z,3.70
2019-06-01T14:05:50.887Z,4.00
2019-06-01T14:10:58.746Z,3.23
2019-06-01T14:13:27.040Z,3.43
2019-06-01T14:15:55.638Z,4.10
2019-06-01T14:18:25.314Z,3.90
2019-06-01T14:21:06.925Z,3.63
2019-06-01T14:23:35.221Z,4.42
2019-06-01T14:26:03.555Z,5.77
2019-06-01T14:28:31.828Z,5.67
2019-06-01T14:31:00.103Z,5.63
2019-06-01T14:33:28.374Z,5.33
2019-06-01T14:35:56.767Z,5.20
2019-06-01T14:38:25.000Z,5.87
2019-06-01T14:40:53.629Z,6.97
2019-06-01T14:43:23.271Z,6.58
2019-06-01T14:45:51.676Z,5.30
2019-06-01T14:48:19.920Z,7.07
2019-06-01T14:50:49.440Z,8.10
2019-06-01T14:55:58.020Z,6.62
2019-06-01T14:58:27.312Z,8.27
2019-06-01T15:00:56.579Z,6.80
2019-06-01T15:03:25.579Z,8.63
2019-06-01T15:05:54.402Z,7.25
2019-06-01T15:08:36.408Z,7.30
2019-06-01T15:11:38.826Z,8.90
2019-06-01T15:14:07.106Z,8.70
2019-06-01T15:16:35.408Z,8.97
2019-06-01T15:19:03.684Z,8.07
2019-06-01T15:21:31.975Z,7.40
2019-06-01T15:24:00.266Z,8.33
2019-06-01T15:26:28.560Z,8.87
2019-06-01T15:28:57.118Z,9.60
2019-06-01T15:31:26.880Z,10.60
2019-06-01T15:33:55.244Z,11.43
2019-06-01T15:36:23.509Z,8.17
2019-06-01T15:38:51.786Z,9.10
2019-06-01T15:41:20.081Z,10.03
2019-06-01T15:43:48.360Z,9.68
2019-06-01T15:46:16.657Z,8.60
2019-06-01T15:48:44.947Z,8.50
2019-06-01T15:51:13.227Z,8.50
2019-06-01T15:53:41.497Z,9.07
2019-06-01T15:56:09.773Z,9.05
2019-06-01T15:58:51.774Z,8.43
2019-06-01T16:01:08.072Z,8.40
2019-06-01T16:03:36.371Z,8.63
2019-06-01T16:06:04.653Z,7.70
2019-06-01T16:08:32.951Z,7.47
2019-06-01T16:11:04.634Z,7.30
2019-06-01T16:13:31.209Z,7.13
2019-06-01T16:16:03.208Z,9.40
2019-06-01T16:18:30.283Z,7.67
2019-06-01T16:20:58.587Z,7.40
2019-06-01T16:23:26.996Z,7.33
2019-06-01T16:26:07.539Z,7.22
2019-06-01T16:28:25.445Z,7.00
2019-06-01T16:30:54.379Z,6.40
2019-06-01T16:36:03.753Z,6.60
2019-06-01T16:38:32.831Z,6.40
2019-06-01T16:41:01.395Z,7.00
2019-06-01T16:43:29.664Z,6.20
2019-06-01T16:45:57.944Z,7.37
2019-06-01T16:48:26.239Z,7.40
2019-06-01T16:50:55.528Z,5.90
2019-06-01T16:53:37.527Z,5.53
2019-06-01T16:56:06.357Z,6.63
2019-06-01T17:01:05.156Z,6.90
2019-06-01T17:03:33.401Z,5.90
2019-06-01T17:06:02.881Z,6.60
2019-06-01T17:08:31.688Z,6.57
2019-06-01T17:11:00.678Z,6.47
2019-06-01T17:13:29.983Z,6.33
2019-06-01T17:15:58.934Z,6.43
2019-06-01T17:18:28.276Z,6.60
2019-06-01T17:20:57.278Z,5.90
2019-06-01T17:26:07.149Z,5.17
2019-06-01T17:28:35.631Z,6.40
2019-06-01T17:31:04.328Z,5.97
2019-06-01T17:36:03.094Z,5.50
2019-06-01T17:38:31.380Z,6.20
2019-06-01T17:41:00.250Z,5.87
2019-06-01T17:43:29.675Z,6.43
2019-06-01T17:45:57.984Z,5.47
2019-06-01T17:48:27.253Z,5.60
2019-06-01T17:50:56.237Z,4.90
2019-06-01T17:53:24.519Z,4.70
2019-06-01T17:55:52.806Z,5.13
2019-06-01T17:58:21.082Z,5.00
2019-06-01T18:00:49.425Z,4.13
2019-06-01T18:03:17.717Z,4.73
2019-06-01T18:05:46.007Z,5.33
2019-06-01T18:08:14.565Z,4.63
2019-06-01T18:10:53.875Z,5.90
2019-06-01T18:13:14.366Z,4.83
2019-06-01T18:15:42.642Z,4.03
2019-06-01T18:18:11.029Z,4.10
2019-06-01T18:20:39.376Z,4.00
2019-06-01T18:23:09.625Z,4.60
2019-06-01T18:25:37.648Z,4.43
2019-06-01T18:28:07.020Z,4.07
2019-06-01T18:30:36.107Z,3.80
2019-06-01T18:33:04.895Z,4.20
2019-06-01T18:35:34.463Z,3.30
2019-06-01T18:38:03.711Z,3.13
2019-06-01T18:40:32.788Z,3.93
2019-06-01T18:43:34.568Z,3.50
2019-06-01T18:46:03.668Z,3.60
2019-06-01T18:48:32.875Z,3.00
2019-06-01T18:51:01.155Z,2.97
2019-06-01T18:53:29.430Z,3.12
2019-06-01T18:55:57.722Z,3.50
2019-06-01T18:58:25.999Z,3.10
2019-06-01T19:00:54.274Z,2.80
2019-06-01T19:03:22.562Z,2.67
2019-06-01T19:05:50.846Z,3.90
2019-06-01T19:08:19.119Z,2.90
2019-06-01T19:10:48.240Z,3.40
2019-06-01T19:13:17.422Z,3.50
2019-06-01T19:15:45.700Z,3.40
2019-06-01T19:18:14.604Z,2.83
2019-06-01T19:20:43.998Z,2.90
2019-06-01T19:23:12.781Z,2.90
2019-06-01T19:25:42.270Z,2.70
2019-06-01T19:28:10.995Z,3.00
2019-06-01T19:31:15.310Z,3.63
2019-06-01T19:33:44.411Z,3.35
2019-06-01T19:36:13.070Z,3.40
2019-06-01T19:39:22.748Z,3.30
2019-06-01T19:41:51.007Z,3.03
2019-06-01T19:44:19.300Z,2.90
2019-06-01T19:46:47.592Z,3.70
2019-06-01T19:49:16.941Z,2.72
2019-06-01T19:51:46.073Z,2.92
2019-06-01T19:54:15.019Z,3.15
2019-06-01T19:56:44.387Z,3.60
2019-06-01T19:59:13.821Z,3.20
2019-06-01T20:01:42.652Z,3.50
2019-06-01T20:04:10.938Z,3.00
2019-06-01T20:06:39.245Z,3.27
2019-06-01T20:09:47.549Z,3.43
2019-06-01T20:12:18.300Z,3.30
2019-06-01T20:14:45.822Z,3.10
2019-06-01T20:17:14.114Z,3.43
2019-06-01T20:19:42.390Z,3.90
2019-06-01T20:22:10.850Z,3.17
2019-06-01T20:24:39.127Z,3.43
2019-06-01T20:27:07.387Z,3.57
2019-06-01T20:29:35.654Z,3.37
2019-06-01T20:32:03.928Z,3.63
2019-06-01T20:34:32.220Z,3.73
2019-06-01T20:37:00.499Z,3.03
2019-06-01T20:39:28.772Z,3.20
2019-06-01T20:41:57.060Z,3.17
2019-06-01T20:44:25.351Z,3.70
2019-06-01T20:46:53.614Z,3.58
2019-06-01T20:49:22.734Z,4.05
2019-06-01T20:51:51.906Z,3.27
2019-06-01T20:54:21.073Z,3.50
2019-06-01T20:56:50.195Z,3.40
2019-06-01T20:59:20.226Z,3.47
2019-06-01T21:01:48.523Z,3.70
2019-06-01T21:04:18.067Z,3.40
2019-06-01T21:06:46.809Z,3.20
2019-06-01T21:09:15.708Z,3.97
2019-06-01T21:11:45.139Z,3.53
2019-06-01T21:14:13.883Z,3.67
2019-06-01T21:16:43.433Z,3.50
2019-06-01T21:19:11.755Z,3.70
2019-06-01T21:21:40.037Z,3.73
2019-06-01T21:24:08.309Z,3.83
2019-06-01T21:26:36.573Z,3.93
2019-06-01T21:29:38.237Z,4.43
2019-06-01T21:32:06.515Z,4.85
2019-06-01T21:34:34.784Z,4.33
2019-06-01T21:37:03.083Z,4.30
2019-06-01T21:39:50.689Z,4.23
2019-06-01T21:42:19.653Z,4.47
2019-06-01T21:44:48.956Z,5.47
2019-06-01T21:47:17.626Z,4.95
2019-06-01T21:49:47.252Z,6.50
2019-06-01T21:52:15.845Z,6.55
2019-06-01T21:54:45.546Z,6.25
2019-06-01T21:57:13.819Z,6.10
2019-06-01T21:59:42.088Z,6.33
2019-06-01T22:02:10.362Z,5.43
2019-06-01T22:04:38.653Z,5.40
2019-06-01T22:07:07.014Z,5.73
2019-06-01T22:09:35.283Z,16.63
2019-06-01T22:12:03.748Z,29.60
2019-06-01T22:14:32.046Z,10.70
2019-06-01T22:17:00.310Z,6.80
2019-06-01T22:19:28.610Z,12.20
2019-06-01T22:21:56.872Z,7.33
2019-06-01T22:24:25.933Z,7.17
2019-06-01T22:26:55.154Z,7.17
2019-06-01T22:29:24.382Z,7.80
2019-06-01T22:31:53.427Z,7.20
2019-06-01T22:34:22.634Z,6.30
2019-06-01T22:36:51.724Z,5.73
2019-06-01T22:39:20.986Z,6.60
2019-06-01T22:41:49.986Z,5.43
2019-06-01T22:44:18.270Z,5.77
2019-06-01T22:46:46.540Z,5.50
2019-06-01T22:49:14.830Z,6.17
2019-06-01T22:51:43.115Z,5.67
2019-06-01T22:54:11.405Z,10.83
2019-06-01T22:56:39.716Z,9.27
2019-06-01T22:59:07.983Z,7.63
2019-06-01T23:01:36.281Z,7.20
2019-06-01T23:04:04.550Z,6.28
2019-06-01T23:06:32.818Z,6.00
2019-06-01T23:09:01.100Z,5.20
2019-06-01T23:11:29.655Z,5.37
2019-06-01T23:13:57.938Z,6.05
2019-06-01T23:16:26.232Z,5.90
2019-06-01T23:18:54.497Z,5.75
2019-06-01T23:21:23.725Z,5.60
2019-06-01T23:23:52.785Z,6.55
2019-06-01T23:26:22.110Z,5.43
2019-06-01T23:28:51.274Z,6.00
2019-06-01T23:31:19.555Z,6.00
2019-06-01T23:33:47.847Z,6.76
2019-06-01T23:36:16.134Z,6.30
2019-06-01T23:38:44.416Z,6.12
2019-06-01T23:41:12.682Z,6.28
2019-06-01T23:43:41.296Z,6.20
2019-06-01T23:46:09.570Z,6.23
2019-06-01T23:48:37.855Z,5.62
2019-06-01T23:51:06.114Z,6.70
2019-06-01T23:53:34.393Z,5.07
2019-06-01T23:56:02.672Z,6.30
2019-06-01T23:58:30.975Z,5.97
